Time;durP1;ratioP1;P1;durP2;ratioP2;P2;SDS_P1;SDS_P2;PMS_P1;PMS_P2;Temp;Humidity;BMP_temperature;BMP_pressure;BME280_temperature;BME280_humidity;BME280_pressure;Samples;Min_cycle;Max_cycle;Signal;HPM_P1;HPM_P2
2021/12/21 00:00:57;;;;;;;21.33;7.63;;;;;;;2.47;77.86;92943.03;4954112;29;20070;-89
2021/12/21 00:03:49;;;;;;;13.65;7.00;;;;;;;2.92;77.30;93008.91;4974957;28;20027;-89
2021/12/21 00:09:53;;;;;;;;;;;;;;;;;;;;;
2021/12/21 00:23:18;;;;;;;15.40;7.07;;;;;;;3.02;77.05;93005.75;4974103;28;20055;-89
2021/12/21 00:26:15;;;;;;;23.52;9.65;;;;;;;2.64;76.68;92940.56;4973924;28;20049;-90
2021/12/21 00:29:20;;;;;;;;;;;;;;;3.04;76.16;92998.53;4963232;28;20129;-89
2021/12/21 00:32:36;;;;;;;;;;;;;;;;;;;;;
2021/12/21 00:36:05;;;;;;;;;;;;;;;;;;;;;
2021/12/21 00:38:49;;;;;;;21.58;8.77;;;;;;;2.58;76.35;92938.88;4977623;28;20031;-89
2021/12/21 00:42:01;;;;;;;;;;;;;;;;;;;;;
2021/12/21 00:44:50;;;;;;;22.75;9.10;;;;;;;2.75;76.94;92979.56;4973688;28;20050;-90
2021/12/21 00:48:08;;;;;;;18.67;8.90;;;;;;;2.75;76.69;92980.38;4959353;28;20538;-89
2021/12/21 00:50:53;;;;;;;19.55;8.00;;;;;;;2.43;77.37;92935.97;4938402;28;20047;-90
2021/12/21 00:54:06;;;;;;;;;;;;;;;;;;;;;
2021/12/21 00:57:22;;;;;;;18.13;8.73;;;;;;;2.71;76.63;92980.03;4971817;28;20161;-89
2021/12/21 01:00:14;;;;;;;18.38;7.93;;;;;;;2.56;77.42;92955.63;4933003;28;20587;-89
2021/12/21 01:03:09;;;;;;;18.52;8.73;;;;;;;2.88;76.92;93000.00;4972000;28;20435;-90
2021/12/21 01:06:38;;;;;;;21.55;9.07;;;;;;;2.73;76.58;92976.44;4930450;28;20042;-89
2021/12/21 01:13:08;;;;;;;;;;;;;;;;;;;;;
2021/12/21 01:26:16;;;;;;;19.77;8.98;;;;;;;2.53;76.14;92954.28;4947715;29;20047;-89
2021/12/21 01:32:16;;;;;;;17.42;7.95;;;;;;;2.49;75.93;92950.56;4950819;28;20054;-89
2021/12/21 01:35:27;;;;;;;19.92;8.40;;;;;;;2.81;76.46;92989.78;4950266;28;20488;-89
2021/12/21 01:38:10;;;;;;;20.77;8.73;;;;;;;2.48;76.33;92944.63;4942260;28;20050;-89
2021/12/21 01:49:55;;;;;;;;;;;;;;;;;;;;;
2021/12/21 01:53:06;;;;;;;19.73;8.88;;;;;;;2.65;75.16;92970.56;4973743;28;20081;-88
2021/12/21 01:55:54;;;;;;;16.33;7.95;;;;;;;2.80;75.31;92984.88;4973714;28;20039;-89
2021/12/21 01:59:12;;;;;;;;;;;;;;;;;;;;;
2021/12/21 02:01:49;;;;;;;16.85;8.38;;;;;;;2.53;75.43;92943.16;4954840;28;20086;-89
2021/12/21 02:05:02;;;;;;;;;;;;;;;;;;;;;
2021/12/21 02:07:53;;;;;;;21.65;8.82;;;;;;;2.54;75.35;92947.31;4961267;28;20043;-89
2021/12/21 02:10:37;;;;;;;24.10;8.55;;;;;;;2.54;75.25;92953.25;4928008;28;20049;-89
2021/12/21 02:13:42;;;;;;;;;;;;;;;;;;;;;
2021/12/21 02:16:24;;;;;;;17.20;7.55;;;;;;;2.54;75.86;92945.50;4957844;28;20063;-89
2021/12/21 02:19:17;;;;;;;18.30;7.63;;;;;;;2.56;75.82;92946.06;4957666;28;20121;-89
2021/12/21 02:22:24;;;;;;;22.90;7.95;;;;;;;2.58;75.22;92954.41;4967424;28;20054;-88
2021/12/21 02:31:27;;;;;;;;;;;;;;;;;;;;;
2021/12/21 02:34:07;;;;;;;17.15;8.23;;;;;;;2.62;75.62;92955.53;4941493;29;20054;-89
2021/12/21 02:37:17;;;;;;;;;;;;;;;;;;;;;
2021/12/21 02:40:17;;;;;;;;;;;;;;;;;;;;;
2021/12/21 02:43:10;;;;;;;14.95;6.22;;;;;;;2.73;75.77;92968.69;4987513;28;20059;-89
2021/12/21 02:46:52;;;;;;;16.48;8.25;;;;;;;2.65;76.08;92960.22;4972395;28;20039;-89
2021/12/21 02:49:24;;;;;;;;;;;;;;;;;;;;;
2021/12/21 02:52:13;;;;;;;17.58;7.47;;;;;;;2.49;76.42;92930.69;4962096;28;20492;-89
2021/12/21 02:55:11;;;;;;;;;;;;;;;;;;;;;
2021/12/21 02:57:44;;;;;;;17.55;8.15;;;;;;;2.40;76.56;92918.34;4961481;28;20109;-88
2021/12/21 03:00:52;;;;;;;13.85;7.25;;;;;;;2.51;76.51;92930.47;4929790;28;20045;-88
2021/12/21 03:04:08;;;;;;;14.60;7.22;;;;;;;2.49;76.24;92927.31;4958463;28;20444;-88
2021/12/21 03:09:41;;;;;;;13.70;6.43;;;;;;;2.57;76.68;92946.84;4962699;28;20046;-88
2021/12/21 03:16:08;;;;;;;;;;;;;;;;;;;;;
2021/12/21 03:19:04;;;;;;;12.83;6.47;;;;;;;2.45;76.90;92933.94;4963050;28;20046;-88
2021/12/21 03:21:53;;;;;;;15.98;6.95;;;;;;;2.58;76.76;92948.44;4961244;28;20394;-88
2021/12/21 03:24:45;;;;;;;13.63;7.05;;;;;;;2.50;76.99;92937.44;4943954;29;20059;-89
2021/12/21 03:27:19;;;;;;;12.00;6.88;;;;;;;2.75;76.85;92974.38;4925350;29;20051;-89
2021/12/21 03:30:07;;;;;;;;;;;;;;;;;;;;;
2021/12/21 03:36:05;;;;;;;23.38;7.75;;;;;;;2.73;76.84;92958.34;4956094;29;20077;-90
2021/12/21 03:38:50;;;;;;;;;;;;;;;;;;;;;
2021/12/21 03:41:57;;;;;;;18.73;8.05;;;;;;;2.50;76.44;92921.94;4975308;28;20038;-88
2021/12/21 03:44:39;;;;;;;;;;;;;;;;;;;;;
2021/12/21 03:47:32;;;;;;;15.02;7.53;;;;;;;2.54;76.69;92931.81;4945456;28;20039;-89
2021/12/21 03:50:27;;;;;;;18.38;7.90;;;;;;;2.66;76.73;92953.28;4960375;28;20043;-89
2021/12/21 03:53:01;;;;;;;14.40;7.30;;;;;;;2.44;77.02;92914.28;4974946;28;20057;-88
2021/12/21 03:56:01;;;;;;;15.90;8.18;;;;;;;2.50;76.81;92928.91;4975588;28;20035;-89
2021/12/21 03:59:15;;;;;;;;;;;;;;;;;;;;;
2021/12/21 04:02:26;;;;;;;13.48;7.07;;;;;;;2.66;76.69;92961.81;4975304;28;20057;-89
2021/12/21 04:05:26;;;;;;;23.92;8.23;;;;;;;2.44;76.74;92927.22;4973722;28;20049;-89
2021/12/21 04:08:26;;;;;;;;;;;;;;;;;;;;;
2021/12/21 04:11:41;;;;;;;;;;;;;;;;;;;;;
2021/12/21 04:17:58;;;;;;;;;;;;;;;;;;;;;
2021/12/21 04:20:44;;;;;;;;;;;;;;;;;;;;;
2021/12/21 04:23:40;;;;;;;22.80;7.97;;;;;;;2.87;76.92;92982.94;4960289;28;20047;-88
2021/12/21 04:26:48;;;;;;;16.35;7.85;;;;;;;2.67;77.37;92952.25;4955080;29;20180;-89
2021/12/21 04:29:47;;;;;;;;;;;;;;;;;;;;;
2021/12/21 04:32:37;;;;;;;19.35;8.20;;;;;;;2.74;77.34;92962.47;4952726;28;20059;-89
2021/12/21 04:35:28;;;;;;;13.05;6.75;;;;;;;2.86;77.39;92982.16;4941597;28;20047;-89
2021/12/21 04:39:17;;;;;;;17.00;6.97;;;;;;;2.54;77.75;92931.81;4942091;28;20408;-90
2021/12/21 04:41:29;;;;;;;18.50;7.68;;;;;;;2.70;77.87;92956.97;4966147;28;20050;-89
2021/12/21 04:44:19;;;;;;;;;;;;;;;;;;;;;
2021/12/21 04:47:04;;;;;;;16.45;6.72;;;;;;;2.51;78.24;92927.88;4964504;28;20515;-89
2021/12/21 04:49:53;;;;;;;19.55;6.90;;;;;;;2.43;78.22;92928.22;4943982;28;20039;-89
2021/12/21 04:52:57;;;;;;;14.85;6.85;;;;;;;2.44;77.69;92933.16;4977893;28;20149;-89
2021/12/21 04:55:43;;;;;;;15.50;7.67;;;;;;;2.42;78.13;92930.00;4985320;28;20142;-89
2021/12/21 04:58:52;;;;;;;;;;;;;;;;;;;;;
2021/12/21 05:04:53;;;;;;;13.90;7.10;;;;;;;2.81;77.72;92999.34;4979804;28;20051;-88
2021/12/21 05:11:18;;;;;;;16.92;6.97;;;;;;;2.38;78.17;92939.22;4977216;28;20054;-90
2021/12/21 05:14:12;;;;;;;;;;;;;;;;;;;;;
2021/12/21 05:17:05;;;;;;;14.38;7.05;;;;;;;2.41;78.13;92945.72;4974748;28;20055;-89
2021/12/21 05:19:59;;;;;;;;;;;;;;;;;;;;;
2021/12/21 05:22:48;;;;;;;17.73;6.30;;;;;;;2.53;78.20;92972.38;4976611;28;20021;-90
2021/12/21 05:28:34;;;;;;;12.70;7.15;;;;;;;2.38;77.38;92944.38;4971051;28;20595;-90
2021/12/21 05:31:27;;;;;;;17.42;7.63;;;;;;;2.30;77.78;92942.16;4960833;28;20361;-90
2021/12/21 05:34:03;;;;;;;15.50;6.68;;;;;;;2.35;77.61;92938.91;4974129;28;20047;-88
2021/12/21 05:37:05;;;;;;;15.90;6.78;;;;;;;2.47;78.32;92962.94;4973788;28;20109;-88
2021/12/21 05:40:20;;;;;;;15.02;6.72;;;;;;;2.38;77.84;92943.59;4958604;28;20464;-89
2021/12/21 05:43:00;;;;;;;20.08;7.78;;;;;;;2.36;77.82;92945.63;4957898;28;20097;-89
2021/12/21 05:45:47;;;;;;;;;;;;;;;;;;;;;
2021/12/21 05:48:51;;;;;;;;;;;;;;;;;;;;;
2021/12/21 05:51:39;;;;;;;17.15;6.80;;;;;;;2.44;77.85;92958.22;4976856;28;20039;-87
2021/12/21 05:54:24;;;;;;;16.98;7.35;;;;;;;2.73;77.71;92999.72;4973640;28;20472;-88
2021/12/21 05:56:54;;;;;;;15.88;7.50;;;;;;;2.38;77.81;92957.31;4952360;28;20483;-87
2021/12/21 05:59:47;;;;;;;14.75;7.55;;;;;;;2.57;77.64;92986.44;4966686;28;20041;-88
2021/12/21 06:02:37;;;;;;;16.15;7.15;;;;;;;2.41;77.63;92964.63;4975601;28;20437;-87
2021/12/21 06:05:23;;;;;;;15.20;6.95;;;;;;;2.37;77.85;92952.38;4959711;28;20049;-88
2021/12/21 06:08:04;;;;;;;13.43;7.07;;;;;;;2.40;77.86;92957.88;4976896;28;20041;-87
2021/12/21 06:10:51;;;;;;;17.23;7.43;;;;;;;2.39;77.98;92958.13;4977247;28;20031;-88
2021/12/21 06:13:43;;;;;;;16.75;7.60;;;;;;;2.39;77.99;92958.13;4962107;28;20151;-87
2021/12/21 06:25:35;;;;;;;16.00;7.35;;;;;;;2.73;78.07;93015.22;4997555;28;20085;-86
2021/12/21 06:28:05;;;;;;;12.35;5.97;;;;;;;2.74;77.77;93014.19;4985745;28;20084;-87
2021/12/21 06:30:31;;;;;;;13.02;6.30;;;;;;;2.73;77.87;93017.81;4967000;28;20038;-87
2021/12/21 06:32:56;;;;;;;13.20;6.18;;;;;;;2.71;77.68;93013.63;4964448;28;20034;-86
2021/12/21 06:35:22;;;;;;;18.35;6.72;;;;;;;2.74;78.28;93022.72;4965300;28;20604;-86
2021/12/21 06:37:56;;;;;;;14.07;6.63;;;;;;;2.61;78.27;92995.31;4947357;28;20050;-86
2021/12/21 07:27:03;;;;;;;16.35;6.82;;;;;;;2.67;77.97;93038.34;4958452;29;20047;-86
2021/12/21 07:29:29;;;;;;;14.75;6.72;;;;;;;2.49;77.73;93012.59;4958010;29;20443;-86
2021/12/21 07:31:55;;;;;;;16.52;7.10;;;;;;;2.62;77.62;93033.06;4956852;29;20035;-86
2021/12/21 07:34:21;;;;;;;16.52;6.93;;;;;;;2.58;77.89;93025.97;4940973;29;20077;-87
2021/12/21 07:36:46;;;;;;;15.70;6.88;;;;;;;2.69;77.90;93045.88;4940390;29;20456;-86
2021/12/21 07:39:20;;;;;;;12.43;6.78;;;;;;;2.69;78.37;93044.09;4955318;28;20061;-86
2021/12/21 07:41:46;;;;;;;12.80;6.50;;;;;;;2.60;78.44;93029.13;4940330;29;20365;-86
2021/12/21 07:44:13;;;;;;;11.10;5.93;;;;;;;2.74;78.51;93055.56;4925020;29;20034;-86
2021/12/21 07:46:40;;;;;;;15.93;6.55;;;;;;;2.75;78.17;93051.94;4894104;29;20090;-86
2021/12/21 07:49:06;;;;;;;12.65;6.28;;;;;;;2.61;78.54;93036.69;4959359;29;20038;-86
2021/12/21 07:51:32;;;;;;;11.98;5.85;;;;;;;2.64;78.51;93035.44;4927812;29;20745;-86
2021/12/21 07:53:57;;;;;;;12.20;5.72;;;;;;;2.59;78.23;93028.34;4924875;29;20149;-86
2021/12/21 07:56:23;;;;;;;12.05;5.85;;;;;;;2.75;77.95;93046.78;4958286;29;20492;-86
2021/12/21 07:58:49;;;;;;;11.07;5.63;;;;;;;2.70;77.47;93043.09;4959833;29;20031;-86
2021/12/21 08:01:15;;;;;;;15.10;5.90;;;;;;;2.67;77.63;93028.00;4943010;29;20106;-86
2021/12/21 08:03:41;;;;;;;10.23;5.65;;;;;;;2.67;77.29;93025.41;4942843;29;20130;-87
2021/12/21 08:06:12;;;;;;;10.75;6.10;;;;;;;2.85;76.94;93041.84;4942245;29;20042;-86
2021/12/21 08:08:41;;;;;;;12.30;5.70;;;;;;;2.78;77.29;93036.00;4958497;29;20065;-86
2021/12/21 08:14:04;;;;;;;14.60;6.28;;;;;;;2.83;77.63;93036.13;4934779;29;20062;-86
2021/12/21 08:16:33;;;;;;;12.35;6.25;;;;;;;2.67;77.61;93009.91;4940257;29;20070;-86
2021/12/21 08:19:01;;;;;;;15.02;6.70;;;;;;;2.77;77.35;93021.50;4940042;29;20062;-86
2021/12/21 08:21:34;;;;;;;16.17;6.60;;;;;;;2.53;77.04;92987.13;4924112;29;20399;-87
2021/12/21 08:24:00;;;;;;;19.00;7.47;;;;;;;2.92;76.97;93052.88;4936079;29;20047;-86
2021/12/21 08:26:28;;;;;;;11.82;6.30;;;;;;;2.60;77.06;92988.56;4943515;28;20053;-86
2021/12/21 08:28:56;;;;;;;16.95;6.63;;;;;;;2.57;77.10;92978.69;4939179;29;20047;-86
2021/12/21 08:31:21;;;;;;;15.35;7.53;;;;;;;2.77;76.96;93016.31;4951796;29;20412;-86
2021/12/21 08:33:47;;;;;;;10.98;6.32;;;;;;;2.77;76.93;93016.31;4939762;29;20047;-86
2021/12/21 08:36:20;;;;;;;15.07;7.32;;;;;;;2.79;76.56;93025.44;4957798;28;20065;-86
2021/12/21 08:38:51;;;;;;;14.32;6.82;;;;;;;2.83;76.69;93038.69;4975189;28;20027;-87
2021/12/21 08:41:20;;;;;;;14.73;7.18;;;;;;;2.64;76.44;93009.59;4957906;29;20043;-86
2021/12/21 08:43:46;;;;;;;14.20;7.95;;;;;;;2.87;76.06;93037.25;4940891;29;20019;-86
2021/12/21 08:46:11;;;;;;;14.35;7.38;;;;;;;2.87;76.04;93024.31;4940328;29;20527;-86
2021/12/21 08:48:37;;;;;;;13.93;7.82;;;;;;;2.70;76.25;92999.13;4959588;28;20035;-86
2021/12/21 08:51:06;;;;;;;17.17;8.65;;;;;;;3.03;76.12;93044.31;4959926;28;20043;-86
2021/12/21 08:53:36;;;;;;;16.70;8.40;;;;;;;2.98;76.33;93033.88;4959282;28;20042;-86
2021/12/21 08:56:02;;;;;;;16.13;7.82;;;;;;;3.13;75.92;93052.31;4975751;28;20400;-87
2021/12/21 08:58:33;;;;;;;17.45;8.18;;;;;;;2.77;75.40;92995.63;4959161;28;20027;-86
2021/12/21 09:01:01;;;;;;;16.15;7.88;;;;;;;2.98;75.52;93031.28;4928991;28;20071;-85
2021/12/21 09:03:33;;;;;;;17.08;8.32;;;;;;;2.94;75.52;93024.97;4959397;28;20054;-86
2021/12/21 09:06:00;;;;;;;13.15;7.15;;;;;;;3.05;75.51;93047.47;4943446;28;20039;-89
2021/12/21 09:08:30;;;;;;;18.70;7.22;;;;;;;2.79;75.14;93007.34;4960143;28;20098;-86
2021/12/21 09:11:06;;;;;;;14.13;7.70;;;;;;;2.89;74.99;93019.72;4959270;28;20046;-88
2021/12/21 09:13:32;;;;;;;14.45;7.43;;;;;;;2.86;75.13;93012.38;4959628;28;20526;-86
2021/12/21 09:16:10;;;;;;;20.63;8.48;;;;;;;3.15;75.17;93053.88;4959747;28;20045;-85
2021/12/21 09:18:41;;;;;;;15.68;8.30;;;;;;;3.04;75.21;93043.31;4959771;28;20052;-84
2021/12/21 09:21:10;;;;;;;17.77;8.65;;;;;;;3.08;75.34;93049.59;4959969;28;20065;-85
2021/12/21 09:23:47;;;;;;;18.50;7.97;;;;;;;2.99;74.96;93029.47;4945346;28;20487;-86
2021/12/21 09:26:14;;;;;;;17.63;8.38;;;;;;;3.16;75.14;93052.88;4958044;28;20054;-85
2021/12/21 09:28:39;;;;;;;14.10;7.10;;;;;;;3.00;74.55;93023.31;4941455;28;20070;-87
2021/12/21 09:31:08;;;;;;;13.20;7.10;;;;;;;2.96;74.53;93017.00;4957283;28;20034;-87
2021/12/21 09:33:34;;;;;;;13.35;7.35;;;;;;;3.30;74.52;93073.09;4974657;28;20038;-86
2021/12/21 09:36:03;;;;;;;13.77;7.38;;;;;;;3.19;73.94;93053.19;4957645;28;20051;-86
2021/12/21 09:38:33;;;;;;;16.85;7.93;;;;;;;3.24;73.40;93060.28;4942234;28;20034;-86
2021/12/21 09:41:00;;;;;;;17.83;8.55;;;;;;;3.14;73.69;93047.91;4945458;28;20053;-87
2021/12/21 09:43:25;;;;;;;14.20;7.00;;;;;;;3.29;73.12;93060.41;4977548;28;20109;-86
2021/12/21 09:45:53;;;;;;;17.45;7.63;;;;;;;3.24;71.87;93040.38;4951992;28;20054;-85
2021/12/21 09:48:22;;;;;;;17.05;8.30;;;;;;;3.07;70.29;93018.78;4961307;28;20027;-85
2021/12/21 09:50:48;;;;;;;15.10;7.95;;;;;;;3.04;71.18;93027.00;4976035;28;20043;-84
2021/12/21 09:53:13;;;;;;;15.73;8.65;;;;;;;3.18;69.67;93050.84;4960432;28;20035;-83
2021/12/21 09:55:39;;;;;;;15.63;8.10;;;;;;;3.29;71.89;93068.16;4943494;28;20053;-85
2021/12/21 09:58:05;;;;;;;17.13;9.70;;;;;;;3.37;71.66;93070.38;4951129;28;20034;-90
2021/12/21 10:00:33;;;;;;;15.70;7.95;;;;;;;3.42;70.90;93077.47;4979951;28;20035;-90
2021/12/21 10:03:05;;;;;;;15.70;8.18;;;;;;;3.42;70.22;93070.47;4980152;28;20051;-86
2021/12/21 10:05:34;;;;;;;16.20;8.47;;;;;;;3.35;70.50;93054.28;4945554;28;20049;-83
2021/12/21 10:08:04;;;;;;;19.85;8.13;;;;;;;3.43;71.40;93069.50;4961399;28;20031;-85
2021/12/21 10:10:35;;;;;;;17.10;7.68;;;;;;;3.47;72.79;93080.97;4962204;28;20066;-84
2021/12/21 10:13:14;;;;;;;18.20;7.93;;;;;;;3.43;71.58;93090.19;4978731;28;20053;-85
2021/12/21 10:15:49;;;;;;;17.08;8.65;;;;;;;3.40;71.01;93080.31;4950059;28;20435;-85
2021/12/21 10:18:26;;;;;;;14.88;7.97;;;;;;;3.38;70.96;93079.75;4961129;28;20046;-84
2021/12/21 10:20:53;;;;;;;13.70;7.90;;;;;;;3.32;71.76;93062.53;4961027;28;20081;-84
2021/12/21 10:23:41;;;;;;;16.65;8.13;;;;;;;3.41;71.70;93076.69;4945048;28;20075;-84
2021/12/21 10:26:12;;;;;;;15.27;7.85;;;;;;;3.36;70.28;93058.47;4974629;28;20107;-85
2021/12/21 10:28:44;;;;;;;15.27;7.45;;;;;;;3.41;71.92;93074.09;4981088;28;20030;-85
2021/12/21 10:31:23;;;;;;;15.95;8.38;;;;;;;3.20;69.34;93065.13;4997676;28;20150;-84
2021/12/21 10:33:49;;;;;;;17.25;8.73;;;;;;;3.37;69.79;93085.13;4997514;28;20034;-85
2021/12/21 10:36:16;;;;;;;15.65;7.60;;;;;;;3.33;67.60;93079.63;4964262;28;20049;-84
2021/12/21 10:38:53;;;;;;;18.55;8.10;;;;;;;3.36;69.52;93081.75;4996829;28;20092;-85
2021/12/21 10:41:29;;;;;;;15.98;8.10;;;;;;;3.44;69.89;93081.41;4978878;28;20041;-85
2021/12/21 10:44:07;;;;;;;18.58;8.43;;;;;;;3.43;69.89;93073.88;4979882;28;20042;-87
2021/12/21 10:46:35;;;;;;;13.57;8.52;;;;;;;3.46;69.77;93079.38;4977186;28;20458;-84
2021/12/21 10:49:42;;;;;;;14.05;8.32;;;;;;;3.52;69.94;93068.13;4964737;28;20034;-85
2021/12/21 10:52:12;;;;;;;16.50;7.85;;;;;;;3.37;70.11;93036.75;4902119;29;20040;-84
2021/12/21 10:54:48;;;;;;;15.18;7.88;;;;;;;3.33;70.62;93028.66;4968900;28;20074;-84
2021/12/21 10:57:17;;;;;;;12.20;6.80;;;;;;;3.61;70.77;93065.19;4958817;28;20037;-86
2021/12/21 10:59:49;;;;;;;21.60;7.97;;;;;;;3.43;71.43;93032.47;4959468;28;20090;-83
2021/12/21 11:02:25;;;;;;;16.08;6.57;;;;;;;3.62;71.75;93058.97;4943471;28;20041;-85
2021/12/21 11:04:57;;;;;;;12.85;7.28;;;;;;;3.36;72.22;93016.28;4971593;28;20054;-86
2021/12/21 11:07:37;;;;;;;15.70;7.88;;;;;;;3.46;72.01;93037.97;4962397;28;20039;-84
2021/12/21 11:10:17;;;;;;;14.30;7.28;;;;;;;3.41;71.97;93035.28;4960043;28;20030;-84
2021/12/21 11:13:10;;;;;;;13.23;7.22;;;;;;;3.31;71.61;93014.34;4967414;28;20064;-84
2021/12/21 11:15:41;;;;;;;13.93;6.35;;;;;;;3.20;71.80;92997.84;4963253;28;20132;-84
2021/12/21 11:18:12;;;;;;;12.98;6.93;;;;;;;3.41;72.33;93024.94;4978620;28;20034;-85
2021/12/21 11:20:43;;;;;;;15.70;6.53;;;;;;;3.48;72.02;93033.34;4962680;28;20125;-86
2021/12/21 11:23:13;;;;;;;15.73;7.38;;;;;;;3.34;72.83;93008.75;4979286;28;20125;-84
2021/12/21 11:25:41;;;;;;;15.40;7.35;;;;;;;3.69;72.36;93044.09;4997174;28;20057;-84
2021/12/21 11:28:06;;;;;;;16.85;7.85;;;;;;;3.71;72.79;93050.63;4975994;28;20038;-83
2021/12/21 11:30:34;;;;;;;13.05;7.13;;;;;;;3.71;72.59;93047.25;4976616;28;20042;-85
2021/12/21 11:33:03;;;;;;;17.13;7.68;;;;;;;3.75;72.13;93045.78;4976475;28;20043;-88
2021/12/21 11:38:02;;;;;;;15.10;6.55;;;;;;;3.68;71.30;93035.53;4994554;28;20100;-85
2021/12/21 11:40:46;;;;;;;15.13;7.03;;;;;;;3.66;71.48;93031.63;4962063;28;20121;-87
2021/12/21 11:43:34;;;;;;;15.48;6.28;;;;;;;3.65;71.86;93030.06;4959275;28;20084;-87
2021/12/21 11:46:05;;;;;;;16.10;7.20;;;;;;;3.65;72.24;93017.91;4965652;28;20038;-88
2021/12/21 11:48:49;;;;;;;13.90;7.63;;;;;;;3.71;73.25;93034.28;4962359;28;20039;-87
2021/12/21 11:51:34;;;;;;;17.08;9.45;;;;;;;3.49;74.15;92993.53;4979302;28;20121;-87
2021/12/21 11:54:44;;;;;;;20.02;10.48;;;;;;;3.44;74.18;93008.94;4964347;28;20046;-87
2021/12/21 11:57:15;;;;;;;15.40;9.33;;;;;;;3.10;74.27;92951.06;4951308;28;20047;-87
2021/12/21 11:59:58;;;;;;;;;;;;;;;;;;;;;
2021/12/21 12:03:06;;;;;;;;;;;;;;;;;;;;;
2021/12/21 12:05:52;;;;;;;15.10;8.50;;;;;;;3.03;72.60;92953.78;4979449;28;20034;-86
2021/12/21 12:08:43;;;;;;;17.65;9.00;;;;;;;2.99;72.59;92955.25;4963098;28;20045;-86
2021/12/21 12:11:36;;;;;;;19.70;9.82;;;;;;;3.31;72.72;92996.25;4976863;28;20094;-90
2021/12/21 12:14:17;;;;;;;19.35;9.90;;;;;;;2.90;73.61;92938.50;4967501;28;20066;-87
2021/12/21 12:17:08;;;;;;;18.80;9.45;;;;;;;2.92;73.97;92944.25;4979674;28;20041;-87
2021/12/21 12:20:29;;;;;;;20.15;9.18;;;;;;;3.22;73.57;92976.91;4979305;28;20034;-87
2021/12/21 12:23:19;;;;;;;;;;;;;;;;;;;;;
2021/12/21 12:26:19;;;;;;;;;;;;;;;;;;;;;
2021/12/21 12:29:03;;;;;;;20.20;10.10;;;;;;;3.24;73.28;92955.00;4976608;28;20042;-86
2021/12/21 12:32:04;;;;;;;16.92;9.13;;;;;;;3.27;72.80;92961.50;4962147;28;20046;-86
2021/12/21 12:35:25;;;;;;;17.95;9.05;;;;;;;2.98;73.44;92916.69;4981195;28;20047;-87
2021/12/21 12:38:07;;;;;;;22.10;9.65;;;;;;;3.19;73.10;92943.75;4962378;28;20034;-86
2021/12/21 12:40:44;;;;;;;16.95;9.20;;;;;;;3.35;73.08;92979.25;4976749;28;20042;-90
2021/12/21 12:43:35;;;;;;;19.95;8.95;;;;;;;2.98;73.11;92907.13;4974284;28;20045;-86
2021/12/21 12:46:27;;;;;;;16.45;7.38;;;;;;;3.24;73.07;92949.00;4978632;28;20120;-87
2021/12/21 12:49:01;;;;;;;14.82;7.97;;;;;;;3.05;73.03;92923.31;4961804;28;20042;-86
2021/12/21 12:51:52;;;;;;;14.97;7.30;;;;;;;2.92;73.09;92908.03;4980542;28;20073;-86
2021/12/21 12:55:15;;;;;;;15.63;8.55;;;;;;;3.04;72.97;92915.78;4962678;28;20046;-87
2021/12/21 12:58:19;;;;;;;15.02;8.40;;;;;;;3.29;71.91;92949.13;4961673;28;20042;-88
2021/12/21 13:01:20;;;;;;;;;;;;;;;;;;;;;
2021/12/21 13:04:07;;;;;;;16.08;8.32;;;;;;;3.32;71.52;92959.78;4994765;28;20030;-87
2021/12/21 13:06:55;;;;;;;20.45;8.65;;;;;;;2.94;72.94;92900.84;4979406;28;20038;-86
2021/12/21 13:09:37;;;;;;;15.20;7.00;;;;;;;2.86;72.22;92888.25;4995177;28;20053;-87
2021/12/21 13:12:14;;;;;;;15.45;8.23;;;;;;;3.30;73.44;92955.88;4948910;28;20038;-87
2021/12/21 13:15:00;;;;;;;13.98;7.15;;;;;;;2.90;72.93;92900.53;4963535;28;20046;-86
2021/12/21 13:17:43;;;;;;;13.48;7.63;;;;;;;2.94;73.06;92895.66;4962793;28;20558;-88
2021/12/21 13:20:36;;;;;;;15.65;7.93;;;;;;;3.14;73.05;92918.56;4962513;28;20065;-86
2021/12/21 13:23:25;;;;;;;15.38;7.30;;;;;;;3.20;72.54;92919.44;4995193;28;20125;-88
2021/12/21 13:26:13;;;;;;;16.52;8.60;;;;;;;3.40;72.61;92943.13;4965885;28;20046;-87
2021/12/21 13:29:18;;;;;;;;;;;;;;;;;;;;;
2021/12/21 13:31:54;;;;;;;16.15;7.90;;;;;;;3.30;72.55;92917.06;4980520;28;20097;-87
2021/12/21 13:35:07;;;;;;;17.67;8.60;;;;;;;3.01;72.63;92880.81;4951133;28;20050;-87
2021/12/21 13:37:47;;;;;;;18.33;9.00;;;;;;;3.15;72.08;92896.84;4987724;28;20041;-89
2021/12/21 13:40:30;;;;;;;;;;;;;;;;;;;;;
2021/12/21 13:43:13;;;;;;;17.80;8.25;;;;;;;3.02;71.77;92873.84;4994224;28;20042;-86
2021/12/21 13:45:58;;;;;;;13.23;7.72;;;;;;;3.04;72.11;92880.38;4978570;28;20043;-87
2021/12/21 13:49:28;;;;;;;;;;;;;;;;;;;;;
2021/12/21 13:52:12;;;;;;;18.02;8.27;;;;;;;3.01;71.59;92883.38;4975450;28;20041;-87
2021/12/21 13:57:35;;;;;;;15.32;7.57;;;;;;;3.06;69.90;92898.22;4966513;28;20130;-86
2021/12/21 14:00:12;;;;;;;21.48;8.05;;;;;;;3.09;69.29;92902.97;4978107;28;20550;-85
2021/12/21 14:02:49;;;;;;;14.07;7.13;;;;;;;2.85;69.59;92863.44;4988539;28;20034;-85
2021/12/21 14:05:18;;;;;;;11.73;6.95;;;;;;;2.97;69.90;92879.69;4993826;28;20034;-85
2021/12/21 14:07:48;;;;;;;13.82;7.15;;;;;;;3.19;69.58;92910.13;4961181;28;20436;-85
2021/12/21 14:10:20;;;;;;;12.77;6.72;;;;;;;3.10;69.42;92894.94;4960888;28;20044;-84
2021/12/21 14:13:01;;;;;;;12.27;7.25;;;;;;;3.22;69.78;92912.22;4961096;28;20197;-84
2021/12/21 14:15:38;;;;;;;14.85;7.30;;;;;;;3.13;69.37;92904.84;4976966;28;20038;-85
2021/12/21 14:18:18;;;;;;;11.60;6.88;;;;;;;3.18;69.35;92921.50;4958570;28;20039;-84
2021/12/21 14:20:46;;;;;;;15.93;7.50;;;;;;;3.11;68.77;92904.28;4957188;28;20391;-84
2021/12/21 14:23:19;;;;;;;16.33;7.60;;;;;;;3.16;68.80;92908.78;4957034;28;20027;-83
2021/12/21 14:25:45;;;;;;;12.95;7.50;;;;;;;3.10;68.56;92899.34;4973888;28;20129;-84
2021/12/21 14:28:12;;;;;;;20.95;8.75;;;;;;;3.18;69.13;92916.31;4974226;28;20038;-84
2021/12/21 14:30:39;;;;;;;16.05;9.27;;;;;;;3.17;69.81;92909.56;4957621;28;20049;-85
2021/12/21 14:33:22;;;;;;;18.92;8.60;;;;;;;3.13;70.29;92904.84;4957529;28;20035;-85
2021/12/21 14:35:47;;;;;;;17.55;8.38;;;;;;;3.00;70.12;92889.59;4963769;28;20490;-84
2021/12/21 14:38:16;;;;;;;18.45;8.45;;;;;;;3.08;70.79;92888.44;4944869;28;20117;-86
2021/12/21 14:40:52;;;;;;;15.80;8.02;;;;;;;3.17;70.33;92910.34;4959554;28;20126;-84
2021/12/21 14:43:24;;;;;;;16.50;8.88;;;;;;;3.18;70.83;92905.97;4971670;28;20051;-84
2021/12/21 14:45:50;;;;;;;17.23;8.67;;;;;;;3.21;70.68;92911.44;4972512;28;20097;-85
2021/12/21 14:48:20;;;;;;;15.63;9.15;;;;;;;3.14;70.53;92900.47;4924956;28;20034;-85
2021/12/21 14:50:53;;;;;;;19.92;9.20;;;;;;;3.11;71.16;92901.72;4979375;28;20741;-83
2021/12/21 14:53:21;;;;;;;16.77;8.60;;;;;;;3.09;71.50;92900.38;4964987;28;20142;-84
2021/12/21 14:55:48;;;;;;;15.55;8.48;;;;;;;3.18;71.95;92911.91;4978734;28;20113;-85
2021/12/21 14:58:18;;;;;;;13.75;7.70;;;;;;;3.15;72.26;92907.19;4980179;28;20042;-83
2021/12/21 15:01:02;;;;;;;16.02;8.63;;;;;;;3.16;72.49;92908.78;4978984;28;20107;-84
2021/12/21 15:03:39;;;;;;;14.75;7.25;;;;;;;3.16;72.25;92902.81;4948550;28;20046;-84
2021/12/21 15:06:05;;;;;;;13.52;7.45;;;;;;;3.00;72.02;92888.81;4963882;28;20038;-84
2021/12/21 15:08:33;;;;;;;15.13;7.50;;;;;;;3.17;72.71;92909.56;4978849;28;20551;-84
2021/12/21 15:11:00;;;;;;;16.17;9.20;;;;;;;3.14;72.45;92908.22;4947165;28;20034;-84
2021/12/21 15:13:26;;;;;;;16.10;8.48;;;;;;;3.08;72.14;92909.91;4962765;28;20483;-85
2021/12/21 15:15:51;;;;;;;14.73;7.80;;;;;;;3.11;72.28;92912.06;4962550;28;20042;-84
2021/12/21 15:18:17;;;;;;;15.93;7.68;;;;;;;3.06;72.21;92911.97;4978864;28;20134;-84
2021/12/21 15:20:43;;;;;;;17.08;8.25;;;;;;;3.08;72.13;92909.13;4963658;28;20049;-84
2021/12/21 15:23:09;;;;;;;14.55;7.60;;;;;;;3.06;72.22;92909.38;4979716;28;20030;-83
2021/12/21 15:25:38;;;;;;;16.95;8.00;;;;;;;3.00;72.75;92905.13;4979155;28;20004;-85
2021/12/21 15:28:05;;;;;;;13.73;7.97;;;;;;;3.04;73.00;92906.22;4979320;28;20038;-84
2021/12/21 15:30:31;;;;;;;19.45;9.02;;;;;;;3.01;73.12;92901.50;4947400;28;20051;-83
2021/12/21 15:32:57;;;;;;;15.35;9.15;;;;;;;2.95;72.42;92896.44;4979390;28;20126;-84
2021/12/21 15:35:25;;;;;;;16.45;8.88;;;;;;;2.88;72.06;92881.88;4979858;28;20517;-84
2021/12/21 15:37:53;;;;;;;14.60;7.60;;;;;;;2.90;71.97;92884.22;4963476;28;20031;-84
2021/12/21 15:40:21;;;;;;;16.15;7.93;;;;;;;2.88;72.28;92887.03;4967264;28;20447;-86
2021/12/21 15:42:48;;;;;;;14.95;8.02;;;;;;;2.92;72.81;92893.31;4979621;28;20084;-84
2021/12/21 15:45:15;;;;;;;17.38;7.70;;;;;;;2.88;73.23;92883.66;4979521;28;20038;-84
2021/12/21 15:47:42;;;;;;;12.70;6.82;;;;;;;2.88;73.14;92892.22;4979918;28;20038;-84
2021/12/21 15:50:09;;;;;;;22.13;8.27;;;;;;;2.87;73.33;92902.78;4962910;28;20399;-84